createdAt,value
2022-11-05T00:00:35.064Z,1.35
2022-11-05T00:03:21.036Z,4.63
2022-11-05T00:06:09.986Z,5.60
2022-11-05T00:08:56.686Z,8.52
2022-11-05T00:11:44.392Z,10.25
2022-11-05T00:14:31.016Z,9.95
2022-11-05T00:16:58.566Z,2.92
2022-11-05T00:19:26.104Z,4.65
2022-11-05T00:22:13.445Z,5.95
2022-11-05T00:25:00.152Z,3.78
2022-11-05T00:27:28.212Z,1.20
2022-11-05T00:29:55.927Z,6.13
2022-11-05T00:32:23.840Z,7.15
2022-11-05T00:34:51.350Z,3.65
2022-11-05T00:37:18.983Z,3.83
2022-11-05T00:39:48.746Z,3.33
2022-11-05T00:42:36.561Z,4.47
2022-11-05T00:45:05.644Z,8.70
2022-11-05T00:47:52.370Z,8.07
2022-11-05T00:50:21.272Z,5.13
2022-11-05T00:52:57.831Z,2.90
2022-11-05T00:55:37.400Z,5.50
2022-11-05T00:58:11.509Z,4.45
2022-11-05T01:00:41.230Z,3.22
2022-11-05T01:03:14.312Z,7.93
2022-11-05T01:05:44.535Z,6.85
2022-11-05T01:08:13.990Z,5.20
2022-11-05T01:10:50.230Z,2.15
2022-11-05T01:13:26.403Z,2.35
2022-11-05T01:15:54.883Z,5.43
2022-11-05T01:18:23.888Z,4.05
2022-11-05T01:20:51.755Z,7.65
2022-11-05T01:23:19.843Z,11.02
2022-11-05T01:25:47.772Z,7.80
2022-11-05T01:28:15.371Z,6.30
2022-11-05T01:30:43.001Z,2.90
2022-11-05T01:33:10.811Z,6.22
2022-11-05T01:35:39.904Z,5.53
2022-11-05T01:38:07.424Z,7.95
2022-11-05T01:40:34.962Z,2.35
2022-11-05T01:43:02.444Z,8.25
2022-11-05T01:45:30.016Z,7.40
2022-11-05T01:48:14.206Z,8.88
2022-11-05T01:50:51.208Z,7.90
2022-11-05T01:53:46.142Z,3.20
2022-11-05T01:56:32.768Z,4.95
2022-11-05T01:59:11.784Z,7.32
2022-11-05T02:01:39.468Z,3.58
2022-11-05T02:04:11.565Z,3.45
2022-11-05T02:06:46.173Z,4.97
2022-11-05T02:09:29.264Z,4.95
2022-11-05T02:11:58.309Z,8.23
2022-11-05T02:14:26.222Z,6.00
2022-11-05T02:16:56.889Z,13.60
2022-11-05T02:19:27.193Z,10.00
2022-11-05T02:22:13.492Z,6.15
2022-11-05T02:25:02.578Z,7.30
2022-11-05T02:27:58.262Z,7.53
2022-11-05T02:30:52.767Z,9.00
2022-11-05T02:33:26.301Z,9.02
2022-11-05T02:36:05.761Z,10.35
2022-11-05T02:38:45.411Z,7.78
2022-11-05T02:41:31.870Z,3.17
2022-11-05T02:44:06.553Z,6.60
2022-11-05T02:46:52.322Z,6.10
2022-11-05T02:49:47.341Z,3.40
2022-11-05T02:52:35.179Z,7.13
2022-11-05T02:55:29.205Z,7.78
2022-11-05T02:57:56.982Z,6.82
2022-11-05T03:00:39.747Z,5.45
2022-11-05T03:03:28.008Z,6.03
2022-11-05T03:06:13.357Z,5.40
2022-11-05T03:08:49.554Z,3.72
2022-11-05T03:11:20.795Z,4.90
2022-11-05T03:14:28.451Z,6.07
2022-11-05T03:17:05.616Z,5.90
2022-11-05T03:19:58.909Z,8.48
2022-11-05T03:22:34.558Z,9.38
2022-11-05T03:25:08.575Z,6.25
2022-11-05T03:27:41.666Z,5.18
2022-11-05T03:30:12.110Z,7.85
2022-11-05T03:32:46.384Z,6.78
2022-11-05T03:35:25.347Z,4.32
2022-11-05T03:37:57.368Z,7.35
2022-11-05T03:40:26.364Z,4.45
2022-11-05T03:42:57.088Z,6.55
2022-11-05T03:45:35.327Z,7.75
2022-11-05T03:48:07.299Z,7.88
2022-11-05T03:50:57.554Z,9.13
2022-11-05T03:53:36.999Z,4.85
2022-11-05T03:56:27.484Z,7.03
2022-11-05T03:58:59.109Z,5.60
2022-11-05T04:01:27.579Z,7.85
2022-11-05T04:03:55.300Z,6.20
2022-11-05T04:06:41.385Z,8.40
2022-11-05T04:09:29.268Z,5.00
2022-11-05T04:12:15.452Z,5.57
2022-11-05T04:14:43.059Z,9.35
2022-11-05T04:17:10.766Z,5.68
2022-11-05T04:20:04.029Z,3.30
2022-11-05T04:22:52.537Z,4.78
2022-11-05T04:25:21.285Z,3.90
2022-11-05T04:27:49.471Z,5.53
2022-11-05T04:30:18.867Z,6.30
2022-11-05T04:32:56.723Z,9.80
2022-11-05T04:35:25.082Z,4.00
2022-11-05T04:37:52.672Z,6.30
2022-11-05T04:40:20.319Z,6.90
2022-11-05T04:42:47.823Z,5.47
2022-11-05T04:45:15.471Z,4.22
2022-11-05T04:47:43.079Z,4.40
2022-11-05T04:50:12.143Z,6.60
2022-11-05T04:52:40.330Z,4.82
2022-11-05T04:55:08.816Z,13.98
2022-11-05T04:57:36.335Z,8.50
2022-11-05T05:00:07.502Z,5.72
2022-11-05T05:02:36.732Z,5.57
2022-11-05T05:05:04.818Z,4.47
2022-11-05T05:07:33.670Z,4.50
2022-11-05T05:10:02.028Z,13.48
2022-11-05T05:12:29.722Z,5.43
2022-11-05T05:14:57.273Z,5.57
2022-11-05T05:17:25.523Z,5.55
2022-11-05T05:20:11.844Z,5.53
2022-11-05T05:22:39.419Z,3.67
2022-11-05T05:25:07.126Z,5.55
2022-11-05T05:27:34.812Z,10.50
2022-11-05T05:30:02.401Z,10.30
2022-11-05T05:32:29.913Z,3.33
2022-11-05T05:34:57.439Z,5.15
2022-11-05T05:37:24.981Z,4.75
2022-11-05T05:39:53.648Z,7.30
2022-11-05T05:42:22.881Z,8.32
2022-11-05T05:44:50.383Z,15.90
2022-11-05T05:47:18.074Z,5.63
2022-11-05T05:49:45.731Z,6.45
2022-11-05T05:52:13.308Z,4.22
2022-11-05T05:54:43.036Z,7.13
2022-11-05T05:59:38.291Z,7.15
2022-11-05T06:02:06.019Z,5.22
2022-11-05T06:04:33.628Z,8.27
2022-11-05T06:07:01.234Z,6.55
2022-11-05T06:09:29.105Z,5.65
2022-11-05T06:11:56.735Z,8.70
2022-11-05T06:14:24.403Z,6.22
2022-11-05T06:16:51.945Z,7.75
2022-11-05T06:19:19.557Z,9.95
2022-11-05T06:21:47.187Z,10.57
2022-11-05T06:24:14.800Z,7.70
2022-11-05T06:26:43.315Z,7.68
2022-11-05T06:29:11.066Z,13.18
2022-11-05T06:31:39.252Z,8.00
2022-11-05T06:34:07.083Z,7.97
2022-11-05T06:36:34.679Z,9.75
2022-11-05T06:39:02.219Z,18.25
2022-11-05T06:41:29.885Z,5.53
2022-11-05T06:43:57.604Z,7.35
2022-11-05T06:46:25.117Z,12.43
2022-11-05T06:48:52.666Z,8.68
2022-11-05T06:51:20.321Z,10.82
2022-11-05T06:53:47.973Z,12.13
2022-11-05T06:56:15.481Z,13.10
2022-11-05T06:58:42.994Z,11.02
2022-11-05T07:01:11.334Z,10.50
2022-11-05T07:03:39.501Z,7.70
2022-11-05T07:06:07.584Z,9.43
2022-11-05T07:08:36.796Z,7.15
2022-11-05T07:11:05.040Z,12.77
2022-11-05T07:13:32.877Z,13.20
2022-11-05T07:16:00.537Z,11.07
2022-11-05T07:18:27.967Z,38.15
2022-11-05T07:20:55.664Z,9.25
2022-11-05T07:23:23.193Z,11.05
2022-11-05T07:25:51.034Z,9.88
2022-11-05T07:28:18.742Z,13.18
2022-11-05T07:30:48.167Z,16.88
2022-11-05T07:33:15.715Z,13.05
2022-11-05T07:35:43.850Z,11.65
2022-11-05T07:38:12.063Z,13.43
2022-11-05T07:40:39.814Z,12.13
2022-11-05T07:43:07.609Z,12.90
2022-11-05T07:45:35.214Z,8.40
2022-11-05T07:48:04.396Z,12.32
2022-11-05T07:50:34.707Z,12.90
2022-11-05T07:53:12.011Z,15.70
2022-11-05T07:55:44.280Z,15.60
2022-11-05T07:58:12.199Z,13.55
2022-11-05T08:00:40.150Z,14.27
2022-11-05T08:03:13.821Z,17.27
2022-11-05T08:05:44.711Z,14.23
2022-11-05T08:08:19.647Z,11.57
2022-11-05T08:10:47.596Z,14.45
2022-11-05T08:13:15.766Z,17.38
2022-11-05T08:15:44.720Z,11.15
2022-11-05T08:18:14.932Z,13.95
2022-11-05T08:20:44.635Z,14.55
2022-11-05T08:23:12.880Z,15.93
2022-11-05T08:25:40.834Z,15.95
2022-11-05T08:28:11.869Z,15.27
2022-11-05T08:30:39.788Z,17.20
2022-11-05T08:33:11.061Z,13.50
2022-11-05T08:35:39.779Z,15.75
2022-11-05T08:38:10.064Z,19.92
2022-11-05T08:40:38.039Z,15.63
2022-11-05T08:43:07.530Z,12.95
2022-11-05T08:45:38.349Z,15.43
2022-11-05T08:48:12.014Z,15.57
2022-11-05T08:50:39.850Z,14.25
2022-11-05T08:53:09.434Z,14.32
2022-11-05T08:55:38.568Z,15.48
2022-11-05T08:58:10.766Z,16.25
2022-11-05T09:00:39.185Z,10.48
2022-11-05T09:03:08.830Z,14.73
2022-11-05T09:05:39.376Z,15.15
2022-11-05T09:08:32.963Z,13.60
2022-11-05T09:11:00.953Z,10.85
2022-11-05T09:13:28.621Z,12.40
2022-11-05T09:15:59.206Z,11.90
2022-11-05T09:18:26.999Z,9.63
2022-11-05T09:20:54.511Z,15.50
2022-11-05T09:23:22.221Z,11.30
2022-11-05T09:25:49.804Z,17.05
2022-11-05T09:28:20.356Z,12.55
2022-11-05T09:30:50.198Z,12.18
2022-11-05T09:33:20.999Z,10.20
2022-11-05T09:35:48.798Z,13.15
2022-11-05T09:38:16.400Z,12.18
2022-11-05T09:41:05.448Z,10.52
2022-11-05T09:43:55.967Z,13.98
2022-11-05T09:46:24.844Z,12.32
2022-11-05T09:49:03.335Z,10.50
2022-11-05T09:51:31.861Z,9.25
2022-11-05T09:54:00.286Z,8.73
2022-11-05T09:56:31.227Z,8.68
2022-11-05T09:59:00.815Z,8.95
2022-11-05T10:01:37.790Z,6.68
2022-11-05T10:04:14.847Z,6.50
2022-11-05T10:06:49.903Z,7.55
2022-11-05T10:09:17.421Z,8.10
2022-11-05T10:12:16.018Z,8.65
2022-11-05T10:14:50.093Z,7.65
2022-11-05T10:17:26.330Z,2.83
2022-11-05T10:20:15.616Z,9.10
2022-11-05T10:22:49.176Z,8.93
2022-11-05T10:25:19.663Z,3.42
2022-11-05T10:27:53.366Z,8.60
2022-11-05T10:30:22.088Z,7.35
2022-11-05T10:32:54.924Z,3.47
2022-11-05T10:35:24.951Z,9.00
2022-11-05T10:37:55.987Z,7.20
2022-11-05T10:40:57.892Z,13.13
2022-11-05T10:43:35.386Z,7.35
2022-11-05T10:46:25.588Z,11.05
2022-11-05T10:49:00.216Z,8.38
2022-11-05T10:51:28.529Z,7.22
2022-11-05T10:54:02.187Z,5.95
2022-11-05T10:56:36.529Z,5.53
2022-11-05T10:59:11.817Z,12.45
2022-11-05T11:01:41.721Z,3.70
2022-11-05T11:04:23.288Z,14.00
2022-11-05T11:06:55.906Z,9.95
2022-11-05T11:09:33.125Z,6.15
2022-11-05T11:12:05.469Z,6.80
2022-11-05T11:14:42.103Z,7.15
2022-11-05T11:17:36.486Z,8.10
2022-11-05T11:20:27.875Z,15.82
2022-11-05T11:23:20.647Z,6.28
2022-11-05T11:25:53.024Z,6.60
2022-11-05T11:28:24.780Z,16.23
2022-11-05T11:31:26.152Z,17.00
2022-11-05T11:34:21.890Z,10.70
2022-11-05T11:36:54.431Z,6.20
2022-11-05T11:39:27.579Z,12.35
2022-11-05T11:41:58.752Z,6.90
2022-11-05T11:44:31.275Z,4.75
2022-11-05T11:47:09.127Z,8.05
2022-11-05T11:49:39.754Z,6.85
2022-11-05T11:52:28.571Z,10.40
2022-11-05T11:55:21.359Z,7.70
2022-11-05T11:58:11.298Z,9.35
2022-11-05T12:00:45.758Z,4.32
2022-11-05T12:03:42.333Z,13.32
2022-11-05T12:06:42.349Z,9.75
2022-11-05T12:09:50.113Z,7.10
2022-11-05T12:12:30.185Z,4.05
2022-11-05T12:18:01.884Z,5.97
2022-11-05T12:21:05.310Z,4.90
2022-11-05T12:23:51.061Z,10.32
2022-11-05T12:26:43.031Z,7.10
2022-11-05T12:29:35.407Z,8.43
2022-11-05T12:32:06.089Z,6.82
2022-11-05T12:34:50.440Z,9.77
2022-11-05T12:37:26.900Z,8.20
2022-11-05T12:39:57.503Z,8.35
2022-11-05T12:42:35.550Z,6.15
2022-11-05T12:45:25.278Z,6.65
2022-11-05T12:47:52.820Z,9.68
2022-11-05T12:50:44.177Z,6.75
2022-11-05T12:53:31.729Z,4.72
2022-11-05T12:56:03.185Z,5.00
2022-11-05T12:58:42.452Z,6.60
2022-11-05T13:01:23.241Z,3.55
2022-11-05T13:04:06.907Z,3.67
2022-11-05T13:06:41.935Z,3.65
2022-11-05T13:09:19.707Z,6.45
2022-11-05T13:12:00.059Z,3.63
2022-11-05T13:14:37.960Z,9.75
2022-11-05T13:17:15.855Z,5.38
2022-11-05T13:19:57.329Z,2.97
2022-11-05T13:22:37.216Z,4.20
2022-11-05T13:25:39.172Z,1.92
2022-11-05T13:28:34.348Z,5.40
2022-11-05T13:31:05.622Z,3.03
2022-11-05T13:33:40.197Z,6.95
2022-11-05T13:36:49.128Z,7.45
2022-11-05T13:39:50.125Z,9.20
2022-11-05T13:42:23.455Z,3.67
2022-11-05T13:45:18.607Z,4.82
2022-11-05T13:48:07.153Z,4.35
2022-11-05T13:51:13.434Z,2.03
2022-11-05T13:54:14.806Z,4.18
2022-11-05T13:57:06.325Z,3.92
2022-11-05T13:59:40.454Z,4.38
2022-11-05T14:02:17.567Z,12.63
2022-11-05T14:04:58.014Z,8.90
2022-11-05T14:07:38.948Z,3.80
2022-11-05T14:10:32.450Z,1.92
2022-11-05T14:13:14.653Z,6.45
2022-11-05T14:15:56.564Z,4.15
2022-11-05T14:19:20.431Z,3.55
2022-11-05T14:21:58.704Z,3.47
2022-11-05T14:24:28.293Z,2.75
2022-11-05T14:27:01.745Z,2.43
2022-11-05T14:29:39.636Z,3.45
2022-11-05T14:32:25.237Z,4.22
2022-11-05T14:35:17.449Z,3.05
2022-11-05T14:37:56.672Z,3.80
2022-11-05T14:40:30.817Z,7.00
2022-11-05T14:43:02.689Z,3.65
2022-11-05T14:45:39.484Z,12.27
2022-11-05T14:48:29.900Z,7.00
2022-11-05T14:50:57.702Z,2.92
2022-11-05T14:53:28.412Z,5.60
2022-11-05T14:56:27.673Z,3.47
2022-11-05T14:59:33.109Z,4.18
2022-11-05T15:02:11.790Z,3.30
2022-11-05T15:04:42.677Z,3.47
2022-11-05T15:07:10.188Z,2.63
2022-11-05T15:10:08.865Z,6.20
2022-11-05T15:15:29.066Z,1.85
2022-11-05T15:18:18.941Z,6.07
2022-11-05T15:20:53.233Z,4.15
2022-11-05T15:23:23.254Z,3.63
2022-11-05T15:26:23.037Z,5.50
2022-11-05T15:28:53.436Z,4.72
2022-11-05T15:31:25.060Z,8.10
2022-11-05T15:34:38.360Z,3.20
2022-11-05T15:37:11.704Z,4.97
2022-11-05T15:39:42.299Z,3.05
2022-11-05T15:42:17.787Z,4.38
2022-11-05T15:44:47.839Z,5.50
2022-11-05T15:47:27.409Z,2.33
2022-11-05T15:49:57.534Z,8.27
2022-11-05T15:55:23.674Z,4.97
2022-11-05T15:58:07.043Z,4.10
2022-11-05T16:00:36.543Z,4.68
2022-11-05T16:03:18.231Z,3.13
2022-11-05T16:05:48.408Z,4.55
2022-11-05T16:10:59.568Z,2.55
2022-11-05T16:13:40.933Z,6.22
2022-11-05T16:16:14.517Z,3.85
2022-11-05T16:18:43.771Z,3.70
2022-11-05T16:21:22.590Z,3.37
2022-11-05T16:23:50.274Z,2.17
2022-11-05T16:26:55.746Z,2.80
2022-11-05T16:29:24.398Z,4.13
2022-11-05T16:31:55.345Z,1.70
2022-11-05T16:34:38.324Z,4.95
2022-11-05T16:37:08.186Z,2.60
2022-11-05T16:39:35.739Z,2.40
2022-11-05T16:42:23.259Z,2.33
2022-11-05T16:44:55.261Z,4.13
2022-11-05T16:47:23.334Z,4.68
2022-11-05T16:49:51.102Z,5.50
2022-11-05T16:52:19.088Z,5.75
2022-11-05T16:54:46.711Z,4.95
2022-11-05T16:57:31.553Z,7.05
2022-11-05T17:00:03.182Z,12.70
2022-11-05T17:02:31.008Z,12.43
2022-11-05T17:04:58.637Z,8.13
2022-11-05T17:07:26.290Z,12.32
2022-11-05T17:09:53.958Z,4.80
2022-11-05T17:12:21.719Z,9.25
2022-11-05T17:14:49.235Z,10.82
2022-11-05T17:17:16.769Z,10.07
2022-11-05T17:19:44.575Z,14.25
2022-11-05T17:22:12.206Z,10.95
2022-11-05T17:24:39.789Z,9.68
2022-11-05T17:27:07.519Z,7.45
2022-11-05T17:29:35.062Z,14.55
2022-11-05T17:32:02.782Z,15.52
2022-11-05T17:34:30.466Z,12.15
2022-11-05T17:36:58.116Z,5.07
2022-11-05T17:39:31.255Z,13.85
2022-11-05T17:41:59.251Z,10.23
2022-11-05T17:44:26.772Z,12.07
2022-11-05T17:46:54.323Z,15.63
2022-11-05T17:49:21.876Z,21.10
2022-11-05T17:51:49.351Z,24.10
2022-11-05T17:54:16.955Z,29.08
2022-11-05T17:56:45.005Z,33.10
2022-11-05T17:59:12.516Z,34.63
2022-11-05T18:01:43.641Z,35.30
2022-11-05T18:04:12.129Z,36.03
2022-11-05T18:06:40.950Z,40.08
2022-11-05T18:09:10.088Z,30.25
2022-11-05T18:11:38.882Z,28.20
2022-11-05T18:14:06.872Z,17.73
2022-11-05T18:16:34.561Z,25.58
2022-11-05T18:19:02.241Z,47.67
2022-11-05T18:21:30.028Z,61.33
2022-11-05T18:23:57.576Z,52.42
2022-11-05T18:26:25.103Z,62.28
2022-11-05T18:28:52.746Z,43.47
2022-11-05T18:31:21.646Z,59.58
2022-11-05T18:33:50.471Z,52.58
2022-11-05T18:36:23.327Z,27.75
2022-11-05T18:38:51.390Z,37.22
2022-11-05T18:41:20.144Z,37.65
2022-11-05T18:43:48.606Z,28.95
2022-11-05T18:46:43.256Z,33.63
2022-11-05T18:49:04.602Z,26.27
2022-11-05T18:51:32.720Z,29.75
2022-11-05T18:54:00.960Z,22.88
2022-11-05T18:56:28.570Z,25.20
2022-11-05T18:59:21.927Z,26.13
2022-11-05T19:01:44.105Z,32.28
2022-11-05T19:04:12.740Z,27.58
2022-11-05T19:06:41.060Z,31.27
2022-11-05T19:09:09.950Z,41.88
2022-11-05T19:11:38.381Z,35.08
2022-11-05T19:14:07.240Z,39.17
2022-11-05T19:16:35.329Z,45.85
2022-11-05T19:19:05.126Z,83.50
2022-11-05T19:21:33.319Z,76.63
2022-11-05T19:24:02.577Z,53.55
2022-11-05T19:26:30.860Z,93.80
2022-11-05T19:29:00.816Z,101.75
2022-11-05T19:31:29.172Z,83.85
2022-11-05T19:33:57.289Z,73.47
2022-11-05T19:36:25.785Z,70.85
2022-11-05T19:38:58.933Z,126.70
2022-11-05T19:41:27.254Z,172.43
2022-11-05T19:43:55.272Z,115.57
2022-11-05T19:46:24.554Z,106.95
2022-11-05T19:48:52.972Z,103.07
2022-11-05T19:51:23.753Z,95.55
2022-11-05T19:53:52.858Z,118.05
2022-11-05T19:56:33.162Z,93.03
2022-11-05T19:59:03.467Z,285.05
2022-11-05T20:01:36.531Z,549.20
2022-11-05T20:04:05.011Z,521.85
2022-11-05T20:06:38.914Z,594.05
2022-11-05T20:09:22.716Z,689.15
2022-11-05T20:11:54.532Z,301.45
2022-11-05T20:14:23.676Z,225.15
2022-11-05T20:16:51.392Z,187.55
2022-11-05T20:19:20.661Z,120.13
2022-11-05T20:21:48.643Z,138.18
2022-11-05T20:24:24.763Z,261.77
2022-11-05T20:26:54.545Z,516.10
2022-11-05T20:29:23.323Z,627.30
2022-11-05T20:31:52.531Z,506.95
2022-11-05T20:34:20.364Z,507.88
2022-11-05T20:36:48.050Z,295.13
2022-11-05T20:39:18.342Z,295.25
2022-11-05T20:41:46.113Z,181.68
2022-11-05T20:44:14.131Z,154.57
2022-11-05T20:46:42.051Z,182.30
2022-11-05T20:49:09.804Z,239.40
2022-11-05T20:51:40.117Z,212.23
2022-11-05T20:54:07.898Z,208.30
2022-11-05T20:56:36.038Z,225.15
2022-11-05T20:59:04.589Z,161.88
2022-11-05T21:01:33.970Z,284.92
2022-11-05T21:04:03.159Z,164.38
2022-11-05T21:06:31.406Z,147.90
2022-11-05T21:08:58.976Z,147.70
2022-11-05T21:11:26.680Z,203.68
2022-11-05T21:13:54.903Z,169.77
2022-11-05T21:16:22.456Z,204.45
2022-11-05T21:18:50.113Z,206.85
2022-11-05T21:21:20.104Z,225.27
2022-11-05T21:26:18.011Z,336.13
2022-11-05T21:28:45.742Z,276.40
2022-11-05T21:31:13.499Z,320.92
2022-11-05T21:33:41.342Z,328.77
2022-11-05T21:36:11.734Z,370.98
2022-11-05T21:38:40.577Z,604.70
2022-11-05T21:41:10.241Z,633.00
2022-11-05T21:43:39.024Z,381.60
2022-11-05T21:46:10.741Z,296.52
2022-11-05T21:48:38.437Z,372.27
2022-11-05T21:51:24.695Z,276.55
2022-11-05T21:54:10.933Z,620.40
2022-11-05T21:56:57.426Z,443.40
2022-11-05T21:59:44.315Z,528.42
2022-11-05T22:02:13.805Z,674.47
2022-11-05T22:04:44.254Z,527.70
2022-11-05T22:07:18.634Z,603.80
2022-11-05T22:09:46.413Z,563.67
2022-11-05T22:12:14.913Z,494.35
2022-11-05T22:14:42.985Z,448.23
2022-11-05T22:17:11.871Z,484.15
2022-11-05T22:19:39.843Z,534.15
2022-11-05T22:22:07.496Z,401.30
2022-11-05T22:24:35.783Z,473.55
2022-11-05T22:27:11.021Z,495.98
2022-11-05T22:29:38.666Z,508.45
2022-11-05T22:32:06.776Z,434.98
2022-11-05T22:34:34.337Z,433.20
2022-11-05T22:37:02.181Z,516.85
2022-11-05T22:39:29.792Z,780.55
2022-11-05T22:41:58.457Z,699.30
2022-11-05T22:44:27.250Z,505.15
2022-11-05T22:46:55.021Z,549.25
2022-11-05T22:49:22.619Z,463.70
2022-11-05T22:51:50.157Z,483.15
2022-11-05T22:54:17.770Z,640.33
2022-11-05T22:56:45.883Z,644.42
2022-11-05T22:59:15.824Z,992.30
2022-11-05T23:04:13.194Z,626.38
2022-11-05T23:06:59.899Z,809.72
2022-11-05T23:09:49.668Z,822.60
2022-11-05T23:14:50.518Z,659.78
2022-11-05T23:17:36.953Z,750.60
2022-11-05T23:20:25.909Z,620.33
2022-11-05T23:23:12.165Z,713.47
2022-11-05T23:25:43.177Z,723.42
2022-11-05T23:28:12.091Z,1157.22
2022-11-05T23:31:03.320Z,931.90
2022-11-05T23:33:34.360Z,610.63
2022-11-05T23:36:20.844Z,576.35
2022-11-05T23:38:48.519Z,782.70
2022-11-05T23:41:34.866Z,653.58
2022-11-05T23:44:23.819Z,565.17
2022-11-05T23:47:10.367Z,543.00
2022-11-05T23:49:40.602Z,638.75
2022-11-05T23:52:08.186Z,733.15
2022-11-05T23:54:35.800Z,692.55
2022-11-05T23:57:03.307Z,570.45
2022-11-05T23:59:31.075Z,597.30
